sensor_id;sensor_type;location;lat;lon;timestamp;P1;durP1;ratioP1;P2;durP2;ratioP2
2011;SDS011;1009;51.436;6.972;2023-03-14T00:00:51;6.63;;;1.90;;
2011;SDS011;1009;51.436;6.972;2023-03-14T00:03:18;6.67;;;1.80;;
2011;SDS011;1009;51.436;6.972;2023-03-14T00:05:45;5.00;;;1.47;;
2011;SDS011;1009;51.436;6.972;2023-03-14T00:08:12;7.97;;;2.33;;
2011;SDS011;1009;51.436;6.972;2023-03-14T00:10:39;5.00;;;2.63;;
2011;SDS011;1009;51.436;6.972;2023-03-14T00:13:07;6.50;;;2.10;;
2011;SDS011;1009;51.436;6.972;2023-03-14T00:15:34;14.47;;;2.23;;
2011;SDS011;1009;51.436;6.972;2023-03-14T00:18:01;6.53;;;2.00;;
2011;SDS011;1009;51.436;6.972;2023-03-14T00:20:28;5.37;;;1.77;;
2011;SDS011;1009;51.436;6.972;2023-03-14T00:22:55;4.73;;;1.70;;
2011;SDS011;1009;51.436;6.972;2023-03-14T00:25:24;8.67;;;1.90;;
2011;SDS011;1009;51.436;6.972;2023-03-14T00:27:51;6.00;;;2.00;;
2011;SDS011;1009;51.436;6.972;2023-03-14T00:30:19;4.53;;;1.97;;
2011;SDS011;1009;51.436;6.972;2023-03-14T00:32:46;6.33;;;1.80;;
2011;SDS011;1009;51.436;6.972;2023-03-14T00:35:13;5.73;;;2.40;;
2011;SDS011;1009;51.436;6.972;2023-03-14T00:37:40;7.07;;;2.20;;
2011;SDS011;1009;51.436;6.972;2023-03-14T00:40:07;7.87;;;2.77;;
2011;SDS011;1009;51.436;6.972;2023-03-14T00:42:35;5.67;;;2.17;;
2011;SDS011;1009;51.436;6.972;2023-03-14T00:45:02;5.20;;;2.00;;
2011;SDS011;1009;51.436;6.972;2023-03-14T00:47:31;6.67;;;2.30;;
2011;SDS011;1009;51.436;6.972;2023-03-14T00:49:58;6.77;;;2.00;;
2011;SDS011;1009;51.436;6.972;2023-03-14T00:52:24;10.00;;;2.93;;
2011;SDS011;1009;51.436;6.972;2023-03-14T00:54:51;6.70;;;2.17;;
2011;SDS011;1009;51.436;6.972;2023-03-14T00:57:18;9.17;;;2.60;;
2011;SDS011;1009;51.436;6.972;2023-03-14T00:59:44;6.37;;;1.90;;
2011;SDS011;1009;51.436;6.972;2023-03-14T01:02:11;8.80;;;2.27;;
2011;SDS011;1009;51.436;6.972;2023-03-14T01:04:39;3.13;;;1.30;;
2011;SDS011;1009;51.436;6.972;2023-03-14T01:07:08;6.27;;;1.33;;
2011;SDS011;1009;51.436;6.972;2023-03-14T01:09:35;3.53;;;1.00;;
2011;SDS011;1009;51.436;6.972;2023-03-14T01:12:01;6.13;;;1.50;;
2011;SDS011;1009;51.436;6.972;2023-03-14T01:14:28;7.00;;;1.53;;
2011;SDS011;1009;51.436;6.972;2023-03-14T01:16:55;3.10;;;1.03;;
2011;SDS011;1009;51.436;6.972;2023-03-14T01:19:25;5.93;;;1.23;;
2011;SDS011;1009;51.436;6.972;2023-03-14T01:21:53;10.83;;;1.63;;
2011;SDS011;1009;51.436;6.972;2023-03-14T01:24:20;4.57;;;1.20;;
2011;SDS011;1009;51.436;6.972;2023-03-14T01:26:47;3.60;;;1.07;;
2011;SDS011;1009;51.436;6.972;2023-03-14T01:29:13;4.20;;;1.30;;
2011;SDS011;1009;51.436;6.972;2023-03-14T01:31:43;7.23;;;1.47;;
2011;SDS011;1009;51.436;6.972;2023-03-14T01:34:10;2.77;;;1.37;;
2011;SDS011;1009;51.436;6.972;2023-03-14T01:36:36;6.80;;;1.90;;
2011;SDS011;1009;51.436;6.972;2023-03-14T01:39:04;4.60;;;1.43;;
2011;SDS011;1009;51.436;6.972;2023-03-14T01:41:33;5.53;;;1.37;;
2011;SDS011;1009;51.436;6.972;2023-03-14T01:43:59;7.47;;;1.33;;
2011;SDS011;1009;51.436;6.972;2023-03-14T01:46:32;7.43;;;1.90;;
2011;SDS011;1009;51.436;6.972;2023-03-14T01:49:07;4.37;;;1.50;;
2011;SDS011;1009;51.436;6.972;2023-03-14T01:51:40;6.30;;;1.60;;
2011;SDS011;1009;51.436;6.972;2023-03-14T01:54:14;5.47;;;1.70;;
2011;SDS011;1009;51.436;6.972;2023-03-14T01:56:46;9.00;;;1.70;;
2011;SDS011;1009;51.436;6.972;2023-03-14T01:59:17;10.57;;;2.17;;
2011;SDS011;1009;51.436;6.972;2023-03-14T02:01:45;5.23;;;2.10;;
2011;SDS011;1009;51.436;6.972;2023-03-14T02:04:13;5.73;;;1.73;;
2011;SDS011;1009;51.436;6.972;2023-03-14T02:06:48;12.10;;;1.97;;
2011;SDS011;1009;51.436;6.972;2023-03-14T02:09:18;7.60;;;1.97;;
2011;SDS011;1009;51.436;6.972;2023-03-14T02:11:46;5.37;;;1.30;;
2011;SDS011;1009;51.436;6.972;2023-03-14T02:14:15;4.40;;;1.50;;
2011;SDS011;1009;51.436;6.972;2023-03-14T02:16:51;7.30;;;2.40;;
2011;SDS011;1009;51.436;6.972;2023-03-14T02:19:18;6.13;;;1.20;;
2011;SDS011;1009;51.436;6.972;2023-03-14T02:21:54;6.50;;;1.80;;
2011;SDS011;1009;51.436;6.972;2023-03-14T02:24:30;9.63;;;1.87;;
2011;SDS011;1009;51.436;6.972;2023-03-14T02:27:10;8.63;;;2.00;;
2011;SDS011;1009;51.436;6.972;2023-03-14T02:29:39;6.07;;;1.40;;
2011;SDS011;1009;51.436;6.972;2023-03-14T02:32:15;5.83;;;1.50;;
2011;SDS011;1009;51.436;6.972;2023-03-14T02:34:44;6.60;;;1.83;;
2011;SDS011;1009;51.436;6.972;2023-03-14T02:37:14;4.70;;;1.90;;
2011;SDS011;1009;51.436;6.972;2023-03-14T02:39:52;7.00;;;1.90;;
2011;SDS011;1009;51.436;6.972;2023-03-14T02:42:20;9.53;;;2.57;;
2011;SDS011;1009;51.436;6.972;2023-03-14T02:44:52;5.60;;;2.17;;
2011;SDS011;1009;51.436;6.972;2023-03-14T02:47:21;5.00;;;1.77;;
2011;SDS011;1009;51.436;6.972;2023-03-14T02:49:53;11.17;;;2.23;;
2011;SDS011;1009;51.436;6.972;2023-03-14T02:52:24;6.20;;;1.63;;
2011;SDS011;1009;51.436;6.972;2023-03-14T02:54:51;9.70;;;1.70;;
2011;SDS011;1009;51.436;6.972;2023-03-14T02:57:18;8.47;;;2.77;;
2011;SDS011;1009;51.436;6.972;2023-03-14T02:59:46;7.70;;;1.80;;
2011;SDS011;1009;51.436;6.972;2023-03-14T03:02:13;13.30;;;2.10;;
2011;SDS011;1009;51.436;6.972;2023-03-14T03:04:39;7.10;;;2.30;;
2011;SDS011;1009;51.436;6.972;2023-03-14T03:07:06;7.43;;;1.90;;
2011;SDS011;1009;51.436;6.972;2023-03-14T03:09:33;3.57;;;1.60;;
2011;SDS011;1009;51.436;6.972;2023-03-14T03:11:59;6.60;;;1.80;;
2011;SDS011;1009;51.436;6.972;2023-03-14T03:14:26;6.10;;;1.70;;
2011;SDS011;1009;51.436;6.972;2023-03-14T03:16:54;6.10;;;1.70;;
2011;SDS011;1009;51.436;6.972;2023-03-14T03:19:21;7.47;;;1.93;;
2011;SDS011;1009;51.436;6.972;2023-03-14T03:21:48;6.43;;;1.87;;
2011;SDS011;1009;51.436;6.972;2023-03-14T03:24:14;5.63;;;1.77;;
2011;SDS011;1009;51.436;6.972;2023-03-14T03:26:41;7.40;;;1.57;;
2011;SDS011;1009;51.436;6.972;2023-03-14T03:29:08;6.37;;;2.20;;
2011;SDS011;1009;51.436;6.972;2023-03-14T03:31:36;9.90;;;2.00;;
2011;SDS011;1009;51.436;6.972;2023-03-14T03:34:04;8.83;;;2.23;;
2011;SDS011;1009;51.436;6.972;2023-03-14T03:36:31;6.50;;;1.63;;
2011;SDS011;1009;51.436;6.972;2023-03-14T03:38:58;7.83;;;2.07;;
2011;SDS011;1009;51.436;6.972;2023-03-14T03:41:24;10.00;;;2.13;;
2011;SDS011;1009;51.436;6.972;2023-03-14T03:43:51;9.13;;;2.67;;
2011;SDS011;1009;51.436;6.972;2023-03-14T03:46:21;9.50;;;2.20;;
2011;SDS011;1009;51.436;6.972;2023-03-14T03:48:48;6.87;;;1.80;;
2011;SDS011;1009;51.436;6.972;2023-03-14T03:51:23;9.00;;;2.57;;
2011;SDS011;1009;51.436;6.972;2023-03-14T03:53:50;9.43;;;2.10;;
2011;SDS011;1009;51.436;6.972;2023-03-14T03:56:20;7.30;;;1.87;;
2011;SDS011;1009;51.436;6.972;2023-03-14T03:58:46;11.27;;;2.60;;
2011;SDS011;1009;51.436;6.972;2023-03-14T04:01:13;7.07;;;2.23;;
2011;SDS011;1009;51.436;6.972;2023-03-14T04:03:40;9.03;;;2.67;;
2011;SDS011;1009;51.436;6.972;2023-03-14T04:06:07;6.50;;;1.87;;
2011;SDS011;1009;51.436;6.972;2023-03-14T04:08:37;6.70;;;2.13;;
2011;SDS011;1009;51.436;6.972;2023-03-14T04:11:05;5.70;;;2.67;;
2011;SDS011;1009;51.436;6.972;2023-03-14T04:13:32;8.57;;;2.80;;
2011;SDS011;1009;51.436;6.972;2023-03-14T04:15:59;6.67;;;2.70;;
2011;SDS011;1009;51.436;6.972;2023-03-14T04:18:26;12.10;;;2.30;;
2011;SDS011;1009;51.436;6.972;2023-03-14T04:20:55;5.10;;;1.33;;
2011;SDS011;1009;51.436;6.972;2023-03-14T04:23:23;6.63;;;2.10;;
2011;SDS011;1009;51.436;6.972;2023-03-14T04:25:52;3.37;;;1.30;;
2011;SDS011;1009;51.436;6.972;2023-03-14T04:28:19;2.33;;;0.80;;
2011;SDS011;1009;51.436;6.972;2023-03-14T04:30:46;2.60;;;0.77;;
2011;SDS011;1009;51.436;6.972;2023-03-14T04:33:12;3.57;;;0.80;;
2011;SDS011;1009;51.436;6.972;2023-03-14T04:35:42;1.63;;;0.80;;
2011;SDS011;1009;51.436;6.972;2023-03-14T04:38:08;2.00;;;0.60;;
2011;SDS011;1009;51.436;6.972;2023-03-14T04:40:36;6.20;;;0.70;;
2011;SDS011;1009;51.436;6.972;2023-03-14T04:43:04;2.30;;;0.73;;
2011;SDS011;1009;51.436;6.972;2023-03-14T04:45:31;1.70;;;0.70;;
2011;SDS011;1009;51.436;6.972;2023-03-14T04:47:58;3.53;;;0.70;;
2011;SDS011;1009;51.436;6.972;2023-03-14T04:50:25;1.87;;;0.67;;
2011;SDS011;1009;51.436;6.972;2023-03-14T04:52:51;1.93;;;0.60;;
2011;SDS011;1009;51.436;6.972;2023-03-14T04:55:18;1.43;;;0.70;;
2011;SDS011;1009;51.436;6.972;2023-03-14T04:57:45;2.90;;;0.87;;
2011;SDS011;1009;51.436;6.972;2023-03-14T05:00:13;3.13;;;1.07;;
2011;SDS011;1009;51.436;6.972;2023-03-14T05:02:43;3.80;;;0.90;;
2011;SDS011;1009;51.436;6.972;2023-03-14T05:05:09;1.90;;;1.00;;
2011;SDS011;1009;51.436;6.972;2023-03-14T05:07:36;1.93;;;1.00;;
2011;SDS011;1009;51.436;6.972;2023-03-14T05:10:03;3.87;;;1.07;;
2011;SDS011;1009;51.436;6.972;2023-03-14T05:12:30;3.33;;;1.00;;
2011;SDS011;1009;51.436;6.972;2023-03-14T05:14:57;5.07;;;1.10;;
2011;SDS011;1009;51.436;6.972;2023-03-14T05:17:25;2.70;;;0.83;;
2011;SDS011;1009;51.436;6.972;2023-03-14T05:19:52;2.00;;;0.80;;
2011;SDS011;1009;51.436;6.972;2023-03-14T05:22:19;2.57;;;0.80;;
2011;SDS011;1009;51.436;6.972;2023-03-14T05:24:46;3.37;;;0.93;;
2011;SDS011;1009;51.436;6.972;2023-03-14T05:27:13;2.60;;;1.03;;
2011;SDS011;1009;51.436;6.972;2023-03-14T05:29:39;1.90;;;1.03;;
2011;SDS011;1009;51.436;6.972;2023-03-14T05:32:06;1.57;;;0.70;;
2011;SDS011;1009;51.436;6.972;2023-03-14T05:34:34;1.67;;;0.80;;
2011;SDS011;1009;51.436;6.972;2023-03-14T05:37:01;1.70;;;1.00;;
2011;SDS011;1009;51.436;6.972;2023-03-14T05:39:28;2.23;;;0.90;;
2011;SDS011;1009;51.436;6.972;2023-03-14T05:42:01;4.07;;;1.27;;
2011;SDS011;1009;51.436;6.972;2023-03-14T05:44:28;3.57;;;1.30;;
2011;SDS011;1009;51.436;6.972;2023-03-14T05:46:55;2.37;;;1.50;;
2011;SDS011;1009;51.436;6.972;2023-03-14T05:49:24;3.80;;;1.80;;
2011;SDS011;1009;51.436;6.972;2023-03-14T05:51:53;6.70;;;2.83;;
2011;SDS011;1009;51.436;6.972;2023-03-14T05:54:19;3.63;;;3.10;;
2011;SDS011;1009;51.436;6.972;2023-03-14T05:56:46;8.83;;;3.70;;
2011;SDS011;1009;51.436;6.972;2023-03-14T05:59:13;6.40;;;4.30;;
2011;SDS011;1009;51.436;6.972;2023-03-14T06:01:40;7.13;;;4.33;;
2011;SDS011;1009;51.436;6.972;2023-03-14T06:04:07;7.63;;;3.70;;
2011;SDS011;1009;51.436;6.972;2023-03-14T06:06:33;7.43;;;4.23;;
2011;SDS011;1009;51.436;6.972;2023-03-14T06:09:02;8.03;;;4.13;;
2011;SDS011;1009;51.436;6.972;2023-03-14T06:11:28;8.40;;;4.00;;
2011;SDS011;1009;51.436;6.972;2023-03-14T06:13:55;9.00;;;3.80;;
2011;SDS011;1009;51.436;6.972;2023-03-14T06:16:22;9.80;;;4.57;;
2011;SDS011;1009;51.436;6.972;2023-03-14T06:18:49;9.13;;;4.00;;
2011;SDS011;1009;51.436;6.972;2023-03-14T06:21:17;8.60;;;3.80;;
2011;SDS011;1009;51.436;6.972;2023-03-14T06:23:44;7.20;;;3.70;;
2011;SDS011;1009;51.436;6.972;2023-03-14T06:26:12;7.93;;;3.67;;
2011;SDS011;1009;51.436;6.972;2023-03-14T06:28:39;7.43;;;3.07;;
2011;SDS011;1009;51.436;6.972;2023-03-14T06:31:06;5.60;;;2.87;;
2011;SDS011;1009;51.436;6.972;2023-03-14T06:33:33;9.03;;;4.07;;
2011;SDS011;1009;51.436;6.972;2023-03-14T06:35:59;6.17;;;2.90;;
2011;SDS011;1009;51.436;6.972;2023-03-14T06:38:26;8.60;;;3.10;;
2011;SDS011;1009;51.436;6.972;2023-03-14T06:40:53;7.43;;;2.80;;
2011;SDS011;1009;51.436;6.972;2023-03-14T06:43:28;3.57;;;1.70;;
2011;SDS011;1009;51.436;6.972;2023-03-14T06:45:59;5.40;;;1.80;;
2011;SDS011;1009;51.436;6.972;2023-03-14T06:48:26;4.43;;;1.40;;
2011;SDS011;1009;51.436;6.972;2023-03-14T06:50:52;3.33;;;1.27;;
2011;SDS011;1009;51.436;6.972;2023-03-14T06:53:19;4.97;;;1.30;;
2011;SDS011;1009;51.436;6.972;2023-03-14T06:55:48;2.90;;;1.00;;
2011;SDS011;1009;51.436;6.972;2023-03-14T06:58:15;1.97;;;0.97;;
2011;SDS011;1009;51.436;6.972;2023-03-14T07:00:43;5.17;;;1.13;;
2011;SDS011;1009;51.436;6.972;2023-03-14T07:03:10;2.67;;;0.73;;
2011;SDS011;1009;51.436;6.972;2023-03-14T07:05:41;1.77;;;0.70;;
2011;SDS011;1009;51.436;6.972;2023-03-14T07:08:08;3.83;;;0.83;;
2011;SDS011;1009;51.436;6.972;2023-03-14T07:10:35;4.13;;;0.83;;
2011;SDS011;1009;51.436;6.972;2023-03-14T07:13:04;1.50;;;0.87;;
2011;SDS011;1009;51.436;6.972;2023-03-14T07:15:34;2.20;;;0.70;;
2011;SDS011;1009;51.436;6.972;2023-03-14T07:18:02;2.37;;;0.80;;
2011;SDS011;1009;51.436;6.972;2023-03-14T07:20:32;1.60;;;0.63;;
2011;SDS011;1009;51.436;6.972;2023-03-14T07:22:58;2.90;;;0.90;;
2011;SDS011;1009;51.436;6.972;2023-03-14T07:25:27;1.60;;;0.70;;
2011;SDS011;1009;51.436;6.972;2023-03-14T07:27:57;1.73;;;1.07;;
2011;SDS011;1009;51.436;6.972;2023-03-14T07:30:27;1.63;;;0.70;;
2011;SDS011;1009;51.436;6.972;2023-03-14T07:32:54;1.80;;;1.00;;
2011;SDS011;1009;51.436;6.972;2023-03-14T07:35:22;2.80;;;0.80;;
2011;SDS011;1009;51.436;6.972;2023-03-14T07:37:49;1.40;;;1.00;;
2011;SDS011;1009;51.436;6.972;2023-03-14T07:40:15;3.77;;;0.80;;
2011;SDS011;1009;51.436;6.972;2023-03-14T07:42:43;3.27;;;1.10;;
2011;SDS011;1009;51.436;6.972;2023-03-14T07:45:13;2.03;;;0.93;;
2011;SDS011;1009;51.436;6.972;2023-03-14T07:47:42;3.00;;;0.80;;
2011;SDS011;1009;51.436;6.972;2023-03-14T07:50:15;2.80;;;1.10;;
2011;SDS011;1009;51.436;6.972;2023-03-14T07:52:43;1.93;;;1.30;;
2011;SDS011;1009;51.436;6.972;2023-03-14T07:55:10;1.83;;;0.90;;
2011;SDS011;1009;51.436;6.972;2023-03-14T07:57:38;1.50;;;1.00;;
2011;SDS011;1009;51.436;6.972;2023-03-14T08:00:06;2.53;;;1.60;;
2011;SDS011;1009;51.436;6.972;2023-03-14T08:02:33;2.83;;;1.40;;
2011;SDS011;1009;51.436;6.972;2023-03-14T08:05:01;1.63;;;1.37;;
2011;SDS011;1009;51.436;6.972;2023-03-14T08:07:30;2.37;;;1.53;;
2011;SDS011;1009;51.436;6.972;2023-03-14T08:09:58;2.20;;;1.43;;
2011;SDS011;1009;51.436;6.972;2023-03-14T08:12:25;1.90;;;1.50;;
2011;SDS011;1009;51.436;6.972;2023-03-14T08:14:58;3.17;;;1.77;;
2011;SDS011;1009;51.436;6.972;2023-03-14T08:17:27;3.13;;;2.03;;
2011;SDS011;1009;51.436;6.972;2023-03-14T08:19:54;4.80;;;2.10;;
2011;SDS011;1009;51.436;6.972;2023-03-14T08:22:26;3.23;;;1.90;;
2011;SDS011;1009;51.436;6.972;2023-03-14T08:24:53;2.20;;;1.70;;
2011;SDS011;1009;51.436;6.972;2023-03-14T08:27:21;2.67;;;1.70;;
2011;SDS011;1009;51.436;6.972;2023-03-14T08:29:51;3.87;;;2.10;;
2011;SDS011;1009;51.436;6.972;2023-03-14T08:32:20;3.53;;;2.20;;
2011;SDS011;1009;51.436;6.972;2023-03-14T08:34:50;3.20;;;1.93;;
2011;SDS011;1009;51.436;6.972;2023-03-14T08:37:17;5.03;;;1.90;;
2011;SDS011;1009;51.436;6.972;2023-03-14T08:39:47;2.80;;;1.80;;
2011;SDS011;1009;51.436;6.972;2023-03-14T08:42:13;3.63;;;2.13;;
2011;SDS011;1009;51.436;6.972;2023-03-14T08:44:42;3.07;;;1.90;;
2011;SDS011;1009;51.436;6.972;2023-03-14T08:47:08;4.50;;;1.77;;
2011;SDS011;1009;51.436;6.972;2023-03-14T08:49:41;2.40;;;1.80;;
2011;SDS011;1009;51.436;6.972;2023-03-14T08:52:11;2.93;;;1.83;;
2011;SDS011;1009;51.436;6.972;2023-03-14T08:54:41;2.53;;;2.00;;
2011;SDS011;1009;51.436;6.972;2023-03-14T08:57:07;3.80;;;2.10;;
2011;SDS011;1009;51.436;6.972;2023-03-14T08:59:35;3.20;;;2.30;;
2011;SDS011;1009;51.436;6.972;2023-03-14T09:02:03;3.60;;;2.20;;
2011;SDS011;1009;51.436;6.972;2023-03-14T09:04:31;5.10;;;3.40;;
2011;SDS011;1009;51.436;6.972;2023-03-14T09:06:58;6.27;;;3.80;;
2011;SDS011;1009;51.436;6.972;2023-03-14T09:09:28;4.53;;;3.80;;
2011;SDS011;1009;51.436;6.972;2023-03-14T09:11:55;6.00;;;3.70;;
2011;SDS011;1009;51.436;6.972;2023-03-14T09:14:22;3.90;;;3.30;;
2011;SDS011;1009;51.436;6.972;2023-03-14T09:16:52;6.83;;;4.10;;
2011;SDS011;1009;51.436;6.972;2023-03-14T09:19:20;5.40;;;4.50;;
2011;SDS011;1009;51.436;6.972;2023-03-14T09:21:47;5.47;;;4.00;;
2011;SDS011;1009;51.436;6.972;2023-03-14T09:24:14;2.80;;;2.10;;
2011;SDS011;1009;51.436;6.972;2023-03-14T09:26:44;2.00;;;1.30;;
2011;SDS011;1009;51.436;6.972;2023-03-14T09:29:11;1.93;;;0.83;;
2011;SDS011;1009;51.436;6.972;2023-03-14T09:31:45;2.63;;;1.17;;
2011;SDS011;1009;51.436;6.972;2023-03-14T09:34:12;2.50;;;1.00;;
2011;SDS011;1009;51.436;6.972;2023-03-14T09:36:40;3.17;;;1.00;;
2011;SDS011;1009;51.436;6.972;2023-03-14T09:39:09;3.40;;;1.27;;
2011;SDS011;1009;51.436;6.972;2023-03-14T09:41:36;3.10;;;1.40;;
2011;SDS011;1009;51.436;6.972;2023-03-14T09:44:08;3.20;;;2.10;;
2011;SDS011;1009;51.436;6.972;2023-03-14T09:46:38;3.13;;;1.80;;
2011;SDS011;1009;51.436;6.972;2023-03-14T09:49:09;3.80;;;2.17;;
2011;SDS011;1009;51.436;6.972;2023-03-14T09:51:40;5.13;;;2.20;;
2011;SDS011;1009;51.436;6.972;2023-03-14T09:54:08;4.60;;;2.60;;
2011;SDS011;1009;51.436;6.972;2023-03-14T09:56:48;5.80;;;3.73;;
2011;SDS011;1009;51.436;6.972;2023-03-14T09:59:16;5.83;;;5.23;;
2011;SDS011;1009;51.436;6.972;2023-03-14T10:01:43;4.40;;;3.50;;
2011;SDS011;1009;51.436;6.972;2023-03-14T10:04:10;6.53;;;4.90;;
2011;SDS011;1009;51.436;6.972;2023-03-14T10:06:42;7.10;;;4.10;;
2011;SDS011;1009;51.436;6.972;2023-03-14T10:09:10;5.23;;;4.27;;
2011;SDS011;1009;51.436;6.972;2023-03-14T10:11:44;6.60;;;4.60;;
2011;SDS011;1009;51.436;6.972;2023-03-14T10:14:11;5.83;;;4.87;;
2011;SDS011;1009;51.436;6.972;2023-03-14T10:16:40;6.90;;;5.17;;
2011;SDS011;1009;51.436;6.972;2023-03-14T10:19:10;10.37;;;6.50;;
2011;SDS011;1009;51.436;6.972;2023-03-14T10:21:39;5.50;;;4.43;;
2011;SDS011;1009;51.436;6.972;2023-03-14T10:24:09;6.43;;;5.23;;
2011;SDS011;1009;51.436;6.972;2023-03-14T10:26:47;6.17;;;4.37;;
2011;SDS011;1009;51.436;6.972;2023-03-14T10:29:15;5.13;;;3.90;;
2011;SDS011;1009;51.436;6.972;2023-03-14T10:31:52;5.53;;;3.93;;
2011;SDS011;1009;51.436;6.972;2023-03-14T10:34:23;4.43;;;3.00;;
2011;SDS011;1009;51.436;6.972;2023-03-14T10:36:52;3.53;;;3.20;;
2011;SDS011;1009;51.436;6.972;2023-03-14T10:39:35;4.87;;;3.47;;
2011;SDS011;1009;51.436;6.972;2023-03-14T10:42:12;3.47;;;3.17;;
2011;SDS011;1009;51.436;6.972;2023-03-14T10:44:44;4.60;;;2.63;;
2011;SDS011;1009;51.436;6.972;2023-03-14T10:47:15;3.37;;;2.20;;
2011;SDS011;1009;51.436;6.972;2023-03-14T10:49:44;5.07;;;2.10;;
2011;SDS011;1009;51.436;6.972;2023-03-14T10:52:15;4.70;;;2.20;;
2011;SDS011;1009;51.436;6.972;2023-03-14T10:54:50;6.87;;;2.33;;
2011;SDS011;1009;51.436;6.972;2023-03-14T10:57:22;4.27;;;1.90;;
2011;SDS011;1009;51.436;6.972;2023-03-14T10:59:49;3.60;;;1.97;;
2011;SDS011;1009;51.436;6.972;2023-03-14T11:02:23;3.90;;;1.93;;
2011;SDS011;1009;51.436;6.972;2023-03-14T11:05:09;3.97;;;1.40;;
2011;SDS011;1009;51.436;6.972;2023-03-14T11:07:45;2.60;;;1.53;;
2011;SDS011;1009;51.436;6.972;2023-03-14T11:10:17;5.93;;;1.67;;
2011;SDS011;1009;51.436;6.972;2023-03-14T11:12:51;6.00;;;1.90;;
2011;SDS011;1009;51.436;6.972;2023-03-14T11:15:28;2.63;;;1.97;;
2011;SDS011;1009;51.436;6.972;2023-03-14T11:18:13;3.57;;;1.33;;
2011;SDS011;1009;51.436;6.972;2023-03-14T11:20:49;4.10;;;1.53;;
2011;SDS011;1009;51.436;6.972;2023-03-14T11:23:20;3.33;;;1.40;;
2011;SDS011;1009;51.436;6.972;2023-03-14T11:25:51;2.07;;;1.30;;
2011;SDS011;1009;51.436;6.972;2023-03-14T11:28:26;2.70;;;1.23;;
2011;SDS011;1009;51.436;6.972;2023-03-14T11:30:59;2.20;;;1.20;;
2011;SDS011;1009;51.436;6.972;2023-03-14T11:33:32;3.50;;;1.00;;
2011;SDS011;1009;51.436;6.972;2023-03-14T11:36:04;4.30;;;1.20;;
2011;SDS011;1009;51.436;6.972;2023-03-14T11:38:34;3.30;;;1.27;;
2011;SDS011;1009;51.436;6.972;2023-03-14T11:41:08;4.97;;;1.97;;
2011;SDS011;1009;51.436;6.972;2023-03-14T11:43:38;2.90;;;1.00;;
2011;SDS011;1009;51.436;6.972;2023-03-14T11:46:08;6.90;;;1.20;;
2011;SDS011;1009;51.436;6.972;2023-03-14T11:48:40;3.30;;;1.10;;
2011;SDS011;1009;51.436;6.972;2023-03-14T11:51:13;3.83;;;1.00;;
2011;SDS011;1009;51.436;6.972;2023-03-14T11:53:48;3.63;;;1.10;;
2011;SDS011;1009;51.436;6.972;2023-03-14T11:56:22;4.30;;;2.07;;
2011;SDS011;1009;51.436;6.972;2023-03-14T11:58:57;4.07;;;1.33;;
2011;SDS011;1009;51.436;6.972;2023-03-14T12:01:29;4.03;;;1.20;;
2011;SDS011;1009;51.436;6.972;2023-03-14T12:04:08;2.20;;;1.20;;
2011;SDS011;1009;51.436;6.972;2023-03-14T12:06:40;4.57;;;1.30;;
2011;SDS011;1009;51.436;6.972;2023-03-14T12:09:13;3.77;;;1.20;;
2011;SDS011;1009;51.436;6.972;2023-03-14T12:11:43;3.73;;;1.23;;
2011;SDS011;1009;51.436;6.972;2023-03-14T12:14:17;5.13;;;1.60;;
2011;SDS011;1009;51.436;6.972;2023-03-14T12:16:46;7.53;;;1.70;;
2011;SDS011;1009;51.436;6.972;2023-03-14T12:19:14;3.20;;;1.43;;
2011;SDS011;1009;51.436;6.972;2023-03-14T12:21:59;6.17;;;1.43;;
2011;SDS011;1009;51.436;6.972;2023-03-14T12:24:32;6.03;;;1.43;;
2011;SDS011;1009;51.436;6.972;2023-03-14T12:27:03;7.20;;;1.50;;
2011;SDS011;1009;51.436;6.972;2023-03-14T12:29:34;4.53;;;1.50;;
2011;SDS011;1009;51.436;6.972;2023-03-14T12:32:25;3.20;;;1.77;;
2011;SDS011;1009;51.436;6.972;2023-03-14T12:34:52;6.20;;;1.57;;
2011;SDS011;1009;51.436;6.972;2023-03-14T12:37:22;8.53;;;2.20;;
2011;SDS011;1009;51.436;6.972;2023-03-14T12:39:59;6.33;;;1.50;;
2011;SDS011;1009;51.436;6.972;2023-03-14T12:42:51;8.53;;;2.13;;
2011;SDS011;1009;51.436;6.972;2023-03-14T12:45:26;9.83;;;2.60;;
2011;SDS011;1009;51.436;6.972;2023-03-14T12:47:55;7.40;;;2.23;;
2011;SDS011;1009;51.436;6.972;2023-03-14T12:50:38;9.57;;;2.30;;
2011;SDS011;1009;51.436;6.972;2023-03-14T12:53:15;5.37;;;2.10;;
2011;SDS011;1009;51.436;6.972;2023-03-14T12:56:02;6.63;;;1.87;;
2011;SDS011;1009;51.436;6.972;2023-03-14T12:58:37;6.50;;;2.27;;
2011;SDS011;1009;51.436;6.972;2023-03-14T13:01:15;16.90;;;3.10;;
2011;SDS011;1009;51.436;6.972;2023-03-14T13:03:44;11.20;;;3.23;;
2011;SDS011;1009;51.436;6.972;2023-03-14T13:06:12;9.70;;;2.83;;
2011;SDS011;1009;51.436;6.972;2023-03-14T13:08:39;13.40;;;3.43;;
2011;SDS011;1009;51.436;6.972;2023-03-14T13:11:08;9.97;;;3.20;;
2011;SDS011;1009;51.436;6.972;2023-03-14T13:13:41;11.30;;;3.73;;
2011;SDS011;1009;51.436;6.972;2023-03-14T13:16:12;12.33;;;3.60;;
2011;SDS011;1009;51.436;6.972;2023-03-14T13:18:44;11.83;;;3.63;;
2011;SDS011;1009;51.436;6.972;2023-03-14T13:21:12;15.40;;;3.90;;
2011;SDS011;1009;51.436;6.972;2023-03-14T13:23:53;16.63;;;4.50;;
2011;SDS011;1009;51.436;6.972;2023-03-14T13:26:22;7.60;;;2.97;;
2011;SDS011;1009;51.436;6.972;2023-03-14T13:28:51;12.17;;;2.50;;
2011;SDS011;1009;51.436;6.972;2023-03-14T13:31:21;11.37;;;3.77;;
2011;SDS011;1009;51.436;6.972;2023-03-14T13:33:57;13.53;;;4.10;;
2011;SDS011;1009;51.436;6.972;2023-03-14T13:36:24;12.63;;;3.20;;
2011;SDS011;1009;51.436;6.972;2023-03-14T13:38:55;16.37;;;3.97;;
2011;SDS011;1009;51.436;6.972;2023-03-14T13:41:23;16.73;;;4.10;;
2011;SDS011;1009;51.436;6.972;2023-03-14T13:43:50;16.40;;;3.70;;
2011;SDS011;1009;51.436;6.972;2023-03-14T13:46:17;16.00;;;4.00;;
2011;SDS011;1009;51.436;6.972;2023-03-14T13:48:50;13.23;;;4.63;;
2011;SDS011;1009;51.436;6.972;2023-03-14T13:51:20;12.70;;;4.17;;
2011;SDS011;1009;51.436;6.972;2023-03-14T13:53:48;15.70;;;3.97;;
2011;SDS011;1009;51.436;6.972;2023-03-14T13:56:16;17.33;;;3.40;;
2011;SDS011;1009;51.436;6.972;2023-03-14T13:58:44;14.90;;;3.80;;
2011;SDS011;1009;51.436;6.972;2023-03-14T14:01:12;19.60;;;3.97;;
2011;SDS011;1009;51.436;6.972;2023-03-14T14:03:43;16.83;;;3.83;;
2011;SDS011;1009;51.436;6.972;2023-03-14T14:06:16;13.60;;;3.67;;
2011;SDS011;1009;51.436;6.972;2023-03-14T14:08:49;10.50;;;3.27;;
2011;SDS011;1009;51.436;6.972;2023-03-14T14:11:19;13.20;;;4.00;;
2011;SDS011;1009;51.436;6.972;2023-03-14T14:13:58;16.33;;;4.30;;
2011;SDS011;1009;51.436;6.972;2023-03-14T14:16:26;16.33;;;3.03;;
2011;SDS011;1009;51.436;6.972;2023-03-14T14:18:56;15.47;;;4.00;;
2011;SDS011;1009;51.436;6.972;2023-03-14T14:21:25;8.73;;;3.20;;
2011;SDS011;1009;51.436;6.972;2023-03-14T14:23:52;13.50;;;3.30;;
2011;SDS011;1009;51.436;6.972;2023-03-14T14:26:20;8.83;;;2.93;;
2011;SDS011;1009;51.436;6.972;2023-03-14T14:28:46;13.13;;;3.30;;
2011;SDS011;1009;51.436;6.972;2023-03-14T14:31:24;14.27;;;3.47;;
2011;SDS011;1009;51.436;6.972;2023-03-14T14:33:54;10.60;;;2.30;;
2011;SDS011;1009;51.436;6.972;2023-03-14T14:36:25;7.20;;;2.13;;
2011;SDS011;1009;51.436;6.972;2023-03-14T14:38:58;12.13;;;2.90;;
2011;SDS011;1009;51.436;6.972;2023-03-14T14:41:30;9.33;;;2.00;;
2011;SDS011;1009;51.436;6.972;2023-03-14T14:44:00;7.60;;;1.80;;
2011;SDS011;1009;51.436;6.972;2023-03-14T14:46:30;7.13;;;2.40;;
2011;SDS011;1009;51.436;6.972;2023-03-14T14:49:02;6.10;;;2.00;;
2011;SDS011;1009;51.436;6.972;2023-03-14T14:51:32;4.03;;;1.60;;
2011;SDS011;1009;51.436;6.972;2023-03-14T14:54:17;10.53;;;2.60;;
2011;SDS011;1009;51.436;6.972;2023-03-14T14:56:46;10.40;;;1.87;;
2011;SDS011;1009;51.436;6.972;2023-03-14T14:59:22;5.87;;;1.80;;
2011;SDS011;1009;51.436;6.972;2023-03-14T15:01:54;7.27;;;1.77;;
2011;SDS011;1009;51.436;6.972;2023-03-14T15:04:23;7.87;;;2.00;;
2011;SDS011;1009;51.436;6.972;2023-03-14T15:06:51;9.43;;;2.43;;
2011;SDS011;1009;51.436;6.972;2023-03-14T15:09:19;6.87;;;2.70;;
2011;SDS011;1009;51.436;6.972;2023-03-14T15:11:45;7.77;;;2.50;;
2011;SDS011;1009;51.436;6.972;2023-03-14T15:14:12;6.50;;;2.17;;
2011;SDS011;1009;51.436;6.972;2023-03-14T15:16:45;7.90;;;2.50;;
2011;SDS011;1009;51.436;6.972;2023-03-14T15:19:21;7.23;;;2.77;;
2011;SDS011;1009;51.436;6.972;2023-03-14T15:21:57;8.73;;;2.17;;
2011;SDS011;1009;51.436;6.972;2023-03-14T15:24:24;9.57;;;2.57;;
2011;SDS011;1009;51.436;6.972;2023-03-14T15:26:51;7.17;;;2.33;;